createdAt,value
2022-10-06T00:02:10.549Z,100.00
2022-10-06T00:05:01.440Z,100.00
2022-10-06T00:07:49.183Z,100.00
2022-10-06T00:10:36.499Z,100.00
2022-10-06T00:13:23.306Z,100.00
2022-10-06T00:16:39.404Z,100.00
2022-10-06T00:23:32.584Z,100.00
2022-10-06T00:26:54.113Z,100.00
2022-10-06T00:30:07.020Z,100.00
2022-10-06T00:33:19.432Z,100.00
2022-10-06T00:36:30.772Z,100.00
2022-10-06T00:39:25.780Z,100.00
2022-10-06T00:42:47.065Z,100.00
2022-10-06T00:45:42.357Z,100.00
2022-10-06T00:48:56.705Z,100.00
2022-10-06T00:55:45.845Z,100.00
2022-10-06T00:58:49.071Z,100.00
2022-10-06T01:02:21.852Z,100.00
2022-10-06T01:05:26.859Z,100.00
2022-10-06T01:11:51.886Z,100.00
2022-10-06T01:15:05.075Z,100.00
2022-10-06T01:17:59.404Z,100.00
2022-10-06T01:21:11.726Z,100.00
2022-10-06T01:27:42.454Z,100.00
2022-10-06T01:30:46.240Z,100.00
2022-10-06T01:34:16.688Z,100.00
2022-10-06T01:40:52.523Z,100.00
2022-10-06T01:43:47.272Z,100.00
2022-10-06T01:50:07.685Z,100.00
2022-10-06T02:00:41.334Z,100.00
2022-10-06T02:07:22.089Z,100.00
2022-10-06T02:10:39.298Z,100.00
2022-10-06T02:13:41.024Z,100.00
2022-10-06T02:16:48.979Z,100.00
2022-10-06T02:20:14.148Z,100.00
2022-10-06T02:23:50.321Z,100.00
2022-10-06T02:27:01.843Z,100.00
2022-10-06T02:30:45.190Z,100.00
2022-10-06T02:34:17.074Z,100.00
2022-10-06T02:37:11.199Z,100.00
2022-10-06T02:39:58.263Z,100.00
2022-10-06T02:42:45.761Z,100.00
2022-10-06T02:46:14.058Z,100.00
2022-10-06T02:49:31.553Z,100.00
2022-10-06T02:52:23.635Z,100.00
2022-10-06T02:55:17.914Z,100.00
2022-10-06T02:58:14.230Z,100.00
2022-10-06T03:01:22.136Z,100.00
2022-10-06T03:04:48.940Z,100.00
2022-10-06T03:07:42.720Z,100.00
2022-10-06T03:11:09.463Z,100.00
2022-10-06T03:14:03.115Z,100.00
2022-10-06T03:20:53.291Z,100.00
2022-10-06T03:23:49.867Z,100.00
2022-10-06T03:29:51.925Z,100.00
2022-10-06T03:32:54.538Z,100.00
2022-10-06T03:36:07.711Z,100.00
2022-10-06T03:39:08.025Z,100.00
2022-10-06T03:41:57.187Z,100.00
2022-10-06T03:44:43.686Z,100.00
2022-10-06T03:47:31.905Z,100.00
2022-10-06T03:50:21.880Z,100.00
2022-10-06T03:53:18.776Z,100.00
2022-10-06T03:56:16.401Z,100.00
2022-10-06T04:02:29.722Z,100.00
2022-10-06T04:05:33.678Z,100.00
2022-10-06T04:08:46.991Z,100.00
2022-10-06T04:11:48.828Z,100.00
2022-10-06T04:14:36.392Z,100.00
2022-10-06T04:17:24.443Z,100.00
2022-10-06T04:20:19.745Z,100.00
2022-10-06T04:23:08.702Z,100.00
2022-10-06T04:26:02.015Z,100.00
2022-10-06T04:29:01.988Z,100.00
2022-10-06T04:31:51.127Z,100.00
2022-10-06T04:35:19.912Z,100.00
2022-10-06T04:38:49.712Z,100.00
2022-10-06T04:41:59.977Z,100.00
2022-10-06T04:45:14.757Z,100.00
2022-10-06T04:48:03.035Z,100.00
2022-10-06T04:50:55.207Z,100.00
2022-10-06T04:53:44.449Z,100.00
2022-10-06T04:56:33.701Z,100.00
2022-10-06T04:59:44.807Z,100.00
2022-10-06T05:02:36.582Z,100.00
2022-10-06T05:05:34.569Z,100.00
2022-10-06T05:08:33.567Z,100.00
2022-10-06T05:11:25.652Z,100.00
2022-10-06T05:14:16.551Z,100.00
2022-10-06T05:17:08.217Z,100.00
2022-10-06T05:19:56.784Z,100.00
2022-10-06T05:23:00.001Z,100.00
2022-10-06T05:25:52.269Z,100.00
2022-10-06T05:28:39.937Z,100.00
2022-10-06T05:31:29.784Z,100.00
2022-10-06T05:34:18.968Z,100.00
2022-10-06T05:37:06.859Z,100.00
2022-10-06T05:40:03.086Z,100.00
2022-10-06T05:43:07.051Z,100.00
2022-10-06T05:45:56.681Z,100.00
2022-10-06T05:48:49.555Z,100.00
2022-10-06T05:51:41.800Z,100.00
2022-10-06T05:54:36.881Z,100.00
2022-10-06T05:57:29.542Z,100.00
2022-10-06T06:00:18.431Z,100.00
2022-10-06T06:03:10.006Z,100.00
2022-10-06T06:05:58.007Z,100.00
2022-10-06T06:08:53.425Z,100.00
2022-10-06T06:12:06.470Z,100.00
2022-10-06T06:15:25.012Z,100.00
2022-10-06T06:18:23.300Z,100.00
2022-10-06T06:21:13.844Z,100.00
2022-10-06T06:24:08.554Z,100.00
2022-10-06T06:40:18.935Z,100.00
2022-10-06T06:43:09.448Z,100.00
2022-10-06T06:46:56.929Z,100.00
2022-10-06T06:49:44.583Z,100.00
2022-10-06T06:53:04.960Z,100.00
2022-10-06T06:56:04.292Z,100.00
2022-10-06T06:59:03.588Z,100.00
2022-10-06T07:01:54.706Z,100.00
2022-10-06T07:04:44.146Z,100.00
2022-10-06T07:07:34.292Z,100.00
2022-10-06T07:10:23.963Z,100.00
2022-10-06T07:13:33.562Z,100.00
2022-10-06T07:16:52.675Z,100.00
2022-10-06T07:19:56.619Z,100.00
2022-10-06T07:26:19.712Z,100.00
2022-10-06T07:29:17.537Z,100.00
2022-10-06T07:32:09.070Z,100.00
2022-10-06T07:35:01.241Z,100.00
2022-10-06T07:38:12.128Z,100.00
2022-10-06T07:41:25.655Z,100.00
2022-10-06T07:44:22.523Z,100.00
2022-10-06T07:47:14.445Z,100.00
2022-10-06T07:50:21.346Z,100.00
2022-10-06T07:53:13.010Z,100.00
2022-10-06T07:56:10.738Z,100.00
2022-10-06T07:59:27.948Z,100.00
2022-10-06T08:02:40.397Z,100.00
2022-10-06T08:05:32.500Z,100.00
2022-10-06T08:08:19.679Z,100.00
2022-10-06T08:11:50.459Z,100.00
2022-10-06T08:14:47.919Z,100.00
2022-10-06T08:17:52.439Z,100.00
2022-10-06T08:21:03.604Z,100.00
2022-10-06T08:23:52.727Z,100.00
2022-10-06T08:26:40.482Z,100.00
2022-10-06T08:29:28.201Z,100.00
2022-10-06T08:32:22.347Z,100.00
2022-10-06T08:35:15.944Z,100.00
2022-10-06T08:38:05.964Z,100.00
2022-10-06T08:41:22.340Z,100.00
2022-10-06T08:45:01.815Z,100.00
2022-10-06T08:48:34.733Z,100.00
2022-10-06T08:51:47.635Z,100.00
2022-10-06T08:55:09.635Z,100.00
2022-10-06T08:58:39.319Z,100.00
2022-10-06T09:02:00.792Z,100.00
2022-10-06T09:04:51.230Z,100.00
2022-10-06T09:08:02.190Z,100.00
2022-10-06T09:11:22.301Z,100.00
2022-10-06T09:14:25.041Z,100.00
2022-10-06T09:17:55.607Z,100.00
2022-10-06T09:21:00.554Z,100.00
2022-10-06T09:24:00.496Z,100.00
2022-10-06T09:27:23.660Z,100.00
2022-10-06T09:30:14.677Z,100.00
2022-10-06T09:33:41.584Z,100.00
2022-10-06T09:37:01.258Z,100.00
2022-10-06T09:40:15.283Z,99.78
2022-10-06T09:43:18.454Z,99.56
2022-10-06T09:46:41.040Z,95.20
2022-10-06T09:49:34.881Z,98.22
2022-10-06T09:52:24.309Z,92.77
2022-10-06T09:55:30.420Z,94.61
2022-10-06T09:58:49.484Z,95.10
2022-10-06T10:01:43.044Z,95.21
2022-10-06T10:04:51.666Z,97.17
2022-10-06T10:07:52.736Z,95.44
2022-10-06T10:10:44.479Z,92.50
2022-10-06T10:13:59.364Z,91.47
2022-10-06T10:16:53.529Z,91.17
2022-10-06T10:19:51.081Z,89.16
2022-10-06T10:23:18.343Z,88.67
2022-10-06T10:26:27.311Z,88.46
2022-10-06T10:29:51.786Z,87.01
2022-10-06T10:33:01.517Z,86.42
2022-10-06T10:36:10.265Z,88.81
2022-10-06T10:39:12.068Z,88.49
2022-10-06T10:42:24.622Z,86.48
2022-10-06T10:45:26.701Z,89.03
2022-10-06T10:49:09.398Z,87.39
2022-10-06T10:52:38.953Z,91.22
2022-10-06T10:55:55.081Z,87.87
2022-10-06T10:58:53.780Z,89.19
2022-10-06T11:01:55.368Z,87.75
2022-10-06T11:05:05.802Z,86.16
2022-10-06T11:08:37.864Z,87.82
2022-10-06T11:12:10.973Z,86.95
2022-10-06T11:15:44.156Z,86.43
2022-10-06T11:18:57.671Z,86.00
2022-10-06T11:22:23.362Z,85.57
2022-10-06T11:25:40.695Z,83.50
2022-10-06T11:28:43.035Z,85.33
2022-10-06T11:31:47.268Z,84.92
2022-10-06T11:34:43.105Z,83.65
2022-10-06T11:38:04.182Z,83.50
